Time;durP1;ratioP1;P1;durP2;ratioP2;P2;SDS_P1;SDS_P2;PMS_P1;PMS_P2;Temp;Humidity;BMP_temperature;BMP_pressure;BME280_temperature;BME280_humidity;BME280_pressure;Samples;Min_cycle;Max_cycle;Signal;HPM_P1;HPM_P2
2023/06/13 00:01:57;;;;;;;4.57;2.57;;;;;;;;;;5099666;28;20195;-79
2023/06/13 00:04:25;;;;;;;4.20;3.00;;;;;;;;;;5101643;28;20663;-79
2023/06/13 00:06:54;;;;;;;7.43;4.03;;;;;;;;;;5093572;28;20232;-79
2023/06/13 00:09:22;;;;;;;7.63;3.37;;;;;;;;;;5107284;28;20203;-79
2023/06/13 00:11:49;;;;;;;4.87;4.00;;;;;;;;;;5107075;28;20223;-79
2023/06/13 00:14:17;;;;;;;6.43;3.90;;;;;;;;;;5107878;28;20218;-79
2023/06/13 00:16:44;;;;;;;3.87;3.60;;;;;;;;;;5113821;28;20206;-79
2023/06/13 00:19:11;;;;;;;4.70;3.60;;;;;;;;;;5100665;28;20307;-79
2023/06/13 00:21:38;;;;;;;4.97;3.40;;;;;;;;;;5113330;28;20231;-79
2023/06/13 00:24:06;;;;;;;5.47;3.50;;;;;;;;;;5113635;28;20203;-79
2023/06/13 00:26:33;;;;;;;5.27;3.60;;;;;;;;;;5106503;28;20220;-79
2023/06/13 00:28:59;;;;;;;4.33;3.93;;;;;;;;;;5106609;28;20218;-79
2023/06/13 00:31:29;;;;;;;3.73;3.43;;;;;;;;;;5100657;28;20199;-79
2023/06/13 00:33:55;;;;;;;7.90;3.97;;;;;;;;;;5099975;28;20200;-79
2023/06/13 00:36:25;;;;;;;3.90;3.60;;;;;;;;;;5113481;28;20207;-79
2023/06/13 00:38:52;;;;;;;5.80;3.73;;;;;;;;;;5113084;28;20286;-79
2023/06/13 00:41:20;;;;;;;4.83;3.73;;;;;;;;;;5105153;28;20207;-79
2023/06/13 00:43:47;;;;;;;4.37;3.60;;;;;;;;;;5094804;28;20196;-79
2023/06/13 00:46:14;;;;;;;4.40;4.10;;;;;;;;;;5113809;28;20241;-79
2023/06/13 00:48:42;;;;;;;5.13;3.40;;;;;;;;;;5098995;28;20256;-79
2023/06/13 00:51:09;;;;;;;5.40;4.03;;;;;;;;;;5113745;28;20258;-79
2023/06/13 00:53:36;;;;;;;6.23;4.70;;;;;;;;;;5098899;28;20679;-79
2023/06/13 00:56:04;;;;;;;5.83;4.13;;;;;;;;;;5112899;28;20678;-79
2023/06/13 00:58:32;;;;;;;4.27;3.70;;;;;;;;;;5112778;28;20199;-79
2023/06/13 01:01:02;;;;;;;4.37;3.97;;;;;;;;;;5113399;28;20196;-79
2023/06/13 01:03:30;;;;;;;4.27;3.87;;;;;;;;;;5112901;28;20587;-79
2023/06/13 01:05:57;;;;;;;4.83;3.63;;;;;;;;;;5112697;28;20223;-79
2023/06/13 01:08:25;;;;;;;6.00;4.10;;;;;;;;;;5108415;28;20724;-79
2023/06/13 01:10:59;;;;;;;4.53;4.13;;;;;;;;;;5103409;28;20707;-79
2023/06/13 01:13:29;;;;;;;9.13;4.57;;;;;;;;;;5098848;28;20661;-79
2023/06/13 01:16:03;;;;;;;6.00;4.77;;;;;;;;;;5099640;28;20216;-79
2023/06/13 01:18:33;;;;;;;4.57;3.90;;;;;;;;;;5092154;28;20204;-79
2023/06/13 01:21:02;;;;;;;7.73;5.37;;;;;;;;;;5107207;28;20209;-79
2023/06/13 01:23:37;;;;;;;5.50;4.20;;;;;;;;;;5104187;28;20253;-79
2023/06/13 01:26:12;;;;;;;9.70;4.20;;;;;;;;;;5094721;28;20321;-79
2023/06/13 01:28:43;;;;;;;5.70;3.63;;;;;;;;;;5112350;28;20209;-79
2023/06/13 01:31:12;;;;;;;4.93;4.43;;;;;;;;;;5094575;28;20211;-79
2023/06/13 01:33:39;;;;;;;4.20;3.77;;;;;;;;;;5104313;28;20209;-79
2023/06/13 01:36:07;;;;;;;4.73;3.97;;;;;;;;;;5098508;28;20252;-79
2023/06/13 01:38:34;;;;;;;4.37;3.97;;;;;;;;;;5112173;28;20210;-79
2023/06/13 01:41:00;;;;;;;5.57;3.80;;;;;;;;;;5092826;28;20625;-79
2023/06/13 01:43:27;;;;;;;5.90;4.00;;;;;;;;;;5104717;28;20200;-79
2023/06/13 01:46:00;;;;;;;7.23;4.57;;;;;;;;;;5098472;28;20705;-79
2023/06/13 01:48:33;;;;;;;4.37;3.63;;;;;;;;;;5098388;28;20228;-79
2023/06/13 01:51:04;;;;;;;5.20;4.40;;;;;;;;;;5112523;28;20203;-79
2023/06/13 01:53:37;;;;;;;8.13;4.40;;;;;;;;;;5109991;28;20213;-79
2023/06/13 01:56:09;;;;;;;7.83;4.10;;;;;;;;;;5101347;28;20204;-79
2023/06/13 01:58:37;;;;;;;5.63;4.30;;;;;;;;;;5111803;28;20195;-79
2023/06/13 02:01:06;;;;;;;5.17;4.07;;;;;;;;;;5111524;28;20231;-79
2023/06/13 02:03:34;;;;;;;4.47;4.07;;;;;;;;;;5110832;28;20243;-79
2023/06/13 02:06:02;;;;;;;4.70;3.30;;;;;;;;;;5100982;28;20599;-79
2023/06/13 02:08:31;;;;;;;7.13;4.33;;;;;;;;;;5104412;28;20207;-79
2023/06/13 02:10:58;;;;;;;6.13;3.90;;;;;;;;;;5103569;28;20206;-79
2023/06/13 02:13:25;;;;;;;5.63;4.70;;;;;;;;;;5098212;28;20203;-79
2023/06/13 02:15:52;;;;;;;5.90;3.67;;;;;;;;;;5112109;28;20213;-79
2023/06/13 02:18:20;;;;;;;4.17;3.87;;;;;;;;;;5111083;28;20258;-79
2023/06/13 02:20:47;;;;;;;6.80;4.27;;;;;;;;;;5098006;28;20704;-79
2023/06/13 02:23:13;;;;;;;5.37;4.40;;;;;;;;;;5111094;28;20198;-79
2023/06/13 02:25:41;;;;;;;7.30;4.43;;;;;;;;;;5098003;28;20762;-79
2023/06/13 02:28:08;;;;;;;5.07;4.47;;;;;;;;;;5097683;28;20212;-79
2023/06/13 02:30:34;;;;;;;9.87;5.43;;;;;;;;;;5111320;28;20195;-79
2023/06/13 02:33:01;;;;;;;4.63;4.23;;;;;;;;;;5104172;28;20444;-79
2023/06/13 02:35:29;;;;;;;4.90;4.50;;;;;;;;;;5090819;28;20698;-79
2023/06/13 02:37:56;;;;;;;4.90;3.97;;;;;;;;;;5090651;28;20203;-79
2023/06/13 02:40:23;;;;;;;5.80;4.43;;;;;;;;;;5096557;28;20206;-79
2023/06/13 02:42:52;;;;;;;4.53;4.13;;;;;;;;;;5094889;28;20196;-79
2023/06/13 02:45:19;;;;;;;7.70;4.03;;;;;;;;;;5109812;28;20198;-79
2023/06/13 02:47:45;;;;;;;6.03;4.60;;;;;;;;;;5097081;28;20290;-79
2023/06/13 02:50:12;;;;;;;7.57;4.60;;;;;;;;;;5057860;28;20211;-79
2023/06/13 02:52:40;;;;;;;6.17;4.97;;;;;;;;;;5057657;28;20198;-79
2023/06/13 02:55:08;;;;;;;5.53;5.03;;;;;;;;;;5057301;28;20258;-79
2023/06/13 02:57:37;;;;;;;5.87;5.20;;;;;;;;;;5063107;28;20207;-79
2023/06/13 03:00:07;;;;;;;6.27;4.37;;;;;;;;;;5063927;28;20293;-79
2023/06/13 03:02:36;;;;;;;8.27;4.93;;;;;;;;;;5050965;28;20767;-79
2023/06/13 03:05:05;;;;;;;11.13;5.70;;;;;;;;;;5065477;28;20279;-79
2023/06/13 03:07:32;;;;;;;5.93;4.80;;;;;;;;;;5070312;28;20294;-79
2023/06/13 03:10:01;;;;;;;5.07;4.60;;;;;;;;;;5065947;28;20231;-79
2023/06/13 03:12:28;;;;;;;6.00;5.50;;;;;;;;;;5063709;28;20204;-79
2023/06/13 03:14:55;;;;;;;9.20;5.97;;;;;;;;;;5050853;28;20200;-79
2023/06/13 03:17:22;;;;;;;5.73;5.23;;;;;;;;;;5066074;28;20690;-79
2023/06/13 03:19:49;;;;;;;5.77;5.00;;;;;;;;;;5058794;28;20618;-79
2023/06/13 03:22:16;;;;;;;7.50;5.53;;;;;;;;;;5054406;28;20263;-79
2023/06/13 03:24:43;;;;;;;7.30;5.90;;;;;;;;;;5074010;28;20194;-79
2023/06/13 03:27:12;;;;;;;5.50;5.00;;;;;;;;;;5061596;28;20232;-79
2023/06/13 03:29:38;;;;;;;5.43;4.93;;;;;;;;;;5060942;28;20199;-78
2023/06/13 03:32:06;;;;;;;5.67;5.13;;;;;;;;;;5060693;28;20201;-78
2023/06/13 03:34:37;;;;;;;9.63;6.50;;;;;;;;;;5054391;28;20213;-79
2023/06/13 03:37:05;;;;;;;13.27;10.07;;;;;;;;;;5067591;28;20231;-79
2023/06/13 03:39:31;;;;;;;13.00;11.70;;;;;;;;;;5053947;28;20262;-79
2023/06/13 03:41:58;;;;;;;17.63;14.07;;;;;;;;;;5067062;28;20683;-79
2023/06/13 03:44:26;;;;;;;8.77;7.97;;;;;;;;;;5062704;28;20199;-78
2023/06/13 03:46:53;;;;;;;6.57;5.90;;;;;;;;;;5058471;28;20228;-79
2023/06/13 03:49:20;;;;;;;11.53;10.33;;;;;;;;;;5089653;28;20233;-79
2023/06/13 03:51:47;;;;;;;24.77;19.00;;;;;;;;;;5098222;28;20622;-78
2023/06/13 03:54:13;;;;;;;42.13;31.73;;;;;;;;;;5103157;28;20207;-78
2023/06/13 03:56:40;;;;;;;35.83;31.80;;;;;;;;;;5111731;28;20204;-79
2023/06/13 03:59:07;;;;;;;16.30;13.50;;;;;;;;;;5103627;28;20195;-79
2023/06/13 04:01:37;;;;;;;7.77;6.70;;;;;;;;;;5113942;28;20210;-79
2023/06/13 04:04:07;;;;;;;6.23;5.73;;;;;;;;;;5114317;28;20199;-79
2023/06/13 04:06:34;;;;;;;6.50;5.80;;;;;;;;;;5113747;28;20213;-79
2023/06/13 04:09:04;;;;;;;6.77;6.17;;;;;;;;;;5114391;28;20251;-80
2023/06/13 04:11:30;;;;;;;7.97;6.43;;;;;;;;;;5108795;28;20202;-80
2023/06/13 04:13:57;;;;;;;5.80;5.13;;;;;;;;;;5101694;28;20207;-80
2023/06/13 04:16:25;;;;;;;7.30;6.70;;;;;;;;;;5112522;28;20198;-80
2023/06/13 04:18:54;;;;;;;5.97;5.37;;;;;;;;;;5114029;28;20209;-80
2023/06/13 04:21:21;;;;;;;6.17;5.67;;;;;;;;;;5109487;28;20203;-80
2023/06/13 04:23:48;;;;;;;6.27;5.70;;;;;;;;;;5104711;28;20214;-80
2023/06/13 04:26:17;;;;;;;5.97;5.47;;;;;;;;;;5096353;28;20219;-80
2023/06/13 04:28:44;;;;;;;6.43;5.93;;;;;;;;;;5111909;28;20203;-80
2023/06/13 04:31:11;;;;;;;7.00;6.33;;;;;;;;;;5100584;28;20573;-80
2023/06/13 04:33:39;;;;;;;6.50;5.77;;;;;;;;;;5099145;28;20207;-80
2023/06/13 04:36:08;;;;;;;5.87;5.37;;;;;;;;;;5113133;28;20706;-79
2023/06/13 04:38:35;;;;;;;6.37;5.87;;;;;;;;;;5106454;28;20268;-80
2023/06/13 04:41:02;;;;;;;5.77;5.37;;;;;;;;;;5106610;28;20213;-80
2023/06/13 04:43:29;;;;;;;6.67;6.03;;;;;;;;;;5100814;28;20199;-80
2023/06/13 04:45:56;;;;;;;7.20;5.20;;;;;;;;;;5113188;28;20200;-80
2023/06/13 04:48:25;;;;;;;6.17;4.80;;;;;;;;;;5105321;28;20252;-80
2023/06/13 04:50:54;;;;;;;5.63;5.13;;;;;;;;;;5094703;28;20739;-80
2023/06/13 04:53:26;;;;;;;5.57;5.17;;;;;;;;;;5103955;28;20671;-80
2023/06/13 04:55:53;;;;;;;5.27;4.40;;;;;;;;;;5106850;28;20200;-80
2023/06/13 04:58:20;;;;;;;4.83;4.33;;;;;;;;;;5092957;28;20257;-80
2023/06/13 05:00:48;;;;;;;9.80;5.07;;;;;;;;;;5092975;28;20257;-80
2023/06/13 05:03:16;;;;;;;4.60;4.30;;;;;;;;;;5103431;28;20588;-80
2023/06/13 05:05:44;;;;;;;8.10;5.47;;;;;;;;;;5099839;28;20580;-80
2023/06/13 05:08:13;;;;;;;6.57;5.97;;;;;;;;;;5101882;28;20591;-80
2023/06/13 05:10:42;;;;;;;5.60;5.20;;;;;;;;;;5110925;28;20192;-80
2023/06/13 05:13:09;;;;;;;9.53;5.90;;;;;;;;;;5100776;28;20299;-81
2023/06/13 05:15:36;;;;;;;6.37;5.77;;;;;;;;;;5100661;28;20196;-80
2023/06/13 05:18:06;;;;;;;6.07;5.47;;;;;;;;;;5106179;28;20192;-80
2023/06/13 05:20:33;;;;;;;7.07;5.70;;;;;;;;;;5092456;28;20215;-81
2023/06/13 05:23:01;;;;;;;5.73;5.23;;;;;;;;;;5110049;28;20204;-80
2023/06/13 05:25:28;;;;;;;8.40;7.17;;;;;;;;;;5101095;28;20201;-81
2023/06/13 05:27:56;;;;;;;6.90;6.10;;;;;;;;;;5092131;28;20216;-81
2023/06/13 05:30:23;;;;;;;6.47;5.97;;;;;;;;;;5104556;28;20203;-80
2023/06/13 05:32:50;;;;;;;6.53;5.93;;;;;;;;;;5106946;28;20204;-81
2023/06/13 05:35:17;;;;;;;6.73;6.17;;;;;;;;;;5092031;28;20196;-80
2023/06/13 05:37:44;;;;;;;6.53;5.93;;;;;;;;;;5097302;28;20198;-80
2023/06/13 05:40:11;;;;;;;6.40;5.83;;;;;;;;;;5111811;28;20256;-80
2023/06/13 05:42:38;;;;;;;6.27;5.77;;;;;;;;;;5111463;28;20198;-80
2023/06/13 05:45:08;;;;;;;6.93;6.00;;;;;;;;;;5112592;28;20198;-80
2023/06/13 05:47:35;;;;;;;6.53;5.80;;;;;;;;;;5111771;28;20269;-80
2023/06/13 05:50:02;;;;;;;6.83;6.33;;;;;;;;;;5112654;28;20613;-81
2023/06/13 05:52:30;;;;;;;6.27;5.67;;;;;;;;;;5112462;28;20207;-81
2023/06/13 05:54:57;;;;;;;8.20;7.40;;;;;;;;;;5111738;28;20196;-80
2023/06/13 05:57:25;;;;;;;7.83;7.10;;;;;;;;;;5112279;28;20215;-81
2023/06/13 05:59:51;;;;;;;6.27;5.67;;;;;;;;;;5098533;28;20200;-80
2023/06/13 06:02:20;;;;;;;9.20;5.80;;;;;;;;;;5112067;28;20703;-81
2023/06/13 06:04:46;;;;;;;7.60;5.57;;;;;;;;;;5107205;28;20208;-81
2023/06/13 06:07:13;;;;;;;8.23;5.87;;;;;;;;;;5101949;28;20216;-80
2023/06/13 06:09:40;;;;;;;7.70;6.83;;;;;;;;;;5108032;28;20704;-81
2023/06/13 06:12:08;;;;;;;5.93;5.43;;;;;;;;;;5108607;28;20738;-80
2023/06/13 06:14:34;;;;;;;6.30;5.80;;;;;;;;;;5105476;28;20218;-80
2023/06/13 06:17:01;;;;;;;6.87;6.10;;;;;;;;;;5092136;28;20741;-80
2023/06/13 06:19:29;;;;;;;6.50;5.80;;;;;;;;;;5091701;28;20211;-80
2023/06/13 06:21:56;;;;;;;6.10;5.50;;;;;;;;;;5092521;28;20228;-80
2023/06/13 06:24:23;;;;;;;5.60;5.20;;;;;;;;;;5104643;28;20249;-81
2023/06/13 06:26:50;;;;;;;5.93;5.37;;;;;;;;;;5095496;28;20298;-81
2023/06/13 06:29:17;;;;;;;7.47;5.73;;;;;;;;;;5099526;28;20571;-81
2023/06/13 06:31:44;;;;;;;8.73;6.20;;;;;;;;;;5111219;28;20235;-80
2023/06/13 06:34:10;;;;;;;6.10;5.60;;;;;;;;;;5097941;28;20606;-81
2023/06/13 06:36:38;;;;;;;9.47;5.63;;;;;;;;;;5111307;28;20682;-80
2023/06/13 06:39:05;;;;;;;6.13;5.60;;;;;;;;;;5097595;28;20195;-81
2023/06/13 06:41:32;;;;;;;8.17;5.27;;;;;;;;;;5098377;28;20295;-80
2023/06/13 06:43:59;;;;;;;5.70;5.20;;;;;;;;;;5104776;28;20196;-80
2023/06/13 06:46:25;;;;;;;6.53;5.63;;;;;;;;;;5089746;28;20747;-80
2023/06/13 06:48:52;;;;;;;7.43;6.23;;;;;;;;;;5097068;28;20288;-80
2023/06/13 06:51:19;;;;;;;8.27;5.70;;;;;;;;;;5096511;28;20568;-80
2023/06/13 06:53:47;;;;;;;6.67;6.00;;;;;;;;;;5104178;28;20223;-80
2023/06/13 06:56:14;;;;;;;7.30;5.63;;;;;;;;;;5104452;28;20586;-80
2023/06/13 06:58:40;;;;;;;7.37;5.40;;;;;;;;;;5098407;28;20261;-81
2023/06/13 07:01:08;;;;;;;7.20;6.13;;;;;;;;;;5110805;28;20261;-80
2023/06/13 07:03:35;;;;;;;7.40;6.70;;;;;;;;;;5103936;28;20203;-81
2023/06/13 07:06:02;;;;;;;8.13;7.33;;;;;;;;;;5104915;28;20203;-80
2023/06/13 07:08:29;;;;;;;8.00;7.20;;;;;;;;;;5098878;28;20227;-80
2023/06/13 07:10:57;;;;;;;8.90;8.10;;;;;;;;;;5096970;28;20222;-80
2023/06/13 07:13:24;;;;;;;8.57;7.73;;;;;;;;;;5102599;28;20429;-80
2023/06/13 07:15:51;;;;;;;7.00;6.40;;;;;;;;;;5090579;28;20196;-81
2023/06/13 07:18:17;;;;;;;10.77;7.93;;;;;;;;;;5103642;28;20635;-80
2023/06/13 07:20:45;;;;;;;10.00;7.57;;;;;;;;;;5103875;28;20204;-81
2023/06/13 07:23:13;;;;;;;8.23;7.27;;;;;;;;;;5110310;28;20234;-81
2023/06/13 07:25:40;;;;;;;15.33;7.30;;;;;;;;;;5110779;28;20207;-81
2023/06/13 07:28:09;;;;;;;8.40;5.20;;;;;;;;;;5103988;28;20226;-80
2023/06/13 07:30:35;;;;;;;8.43;6.30;;;;;;;;;;5104214;28;20289;-80
2023/06/13 07:33:02;;;;;;;7.37;6.57;;;;;;;;;;5111011;28;20626;-81
2023/06/13 07:35:29;;;;;;;7.93;7.17;;;;;;;;;;5097536;28;20207;-80
2023/06/13 07:37:56;;;;;;;7.20;6.47;;;;;;;;;;5103053;28;20269;-81
2023/06/13 07:40:24;;;;;;;10.90;6.30;;;;;;;;;;5103908;28;20237;-81
2023/06/13 07:42:50;;;;;;;9.87;6.50;;;;;;;;;;5098458;28;20607;-81
2023/06/13 07:45:19;;;;;;;8.33;5.83;;;;;;;;;;5110475;28;20200;-81
2023/06/13 07:47:45;;;;;;;11.33;7.37;;;;;;;;;;5110416;28;20230;-80
2023/06/13 07:50:12;;;;;;;10.47;7.00;;;;;;;;;;5054794;28;20251;-80
2023/06/13 07:52:40;;;;;;;8.23;7.50;;;;;;;;;;5058893;28;20692;-80
2023/06/13 07:55:07;;;;;;;8.17;7.37;;;;;;;;;;5067744;28;20225;-80
2023/06/13 07:57:34;;;;;;;7.87;7.00;;;;;;;;;;5059599;28;20213;-80
2023/06/13 08:00:01;;;;;;;7.70;7.07;;;;;;;;;;5056454;28;20697;-80
2023/06/13 08:02:34;;;;;;;7.30;6.40;;;;;;;;;;5071219;28;20201;-80
2023/06/13 08:05:03;;;;;;;7.47;6.33;;;;;;;;;;5060375;28;20201;-80
2023/06/13 08:07:30;;;;;;;6.87;6.17;;;;;;;;;;5073480;28;20570;-80
2023/06/13 08:09:56;;;;;;;7.67;6.93;;;;;;;;;;5069138;28;20237;-80
2023/06/13 08:12:23;;;;;;;7.33;6.73;;;;;;;;;;5064402;28;20201;-80
2023/06/13 08:14:50;;;;;;;9.90;8.90;;;;;;;;;;5056320;28;20236;-80
2023/06/13 08:17:17;;;;;;;7.87;5.70;;;;;;;;;;5064196;28;20680;-80
2023/06/13 08:19:50;;;;;;;7.27;6.53;;;;;;;;;;5055520;28;20194;-80
2023/06/13 08:22:16;;;;;;;8.60;6.50;;;;;;;;;;5053570;28;20206;-80
2023/06/13 08:24:43;;;;;;;6.67;6.07;;;;;;;;;;5066899;28;20264;-80
2023/06/13 08:27:10;;;;;;;7.07;5.87;;;;;;;;;;5053096;28;20684;-80
2023/06/13 08:29:37;;;;;;;6.77;6.03;;;;;;;;;;5072389;28;20259;-80
2023/06/13 08:32:06;;;;;;;7.53;6.37;;;;;;;;;;5073148;28;20212;-79
2023/06/13 08:34:32;;;;;;;6.33;5.83;;;;;;;;;;5060075;28;20209;-79
2023/06/13 08:37:01;;;;;;;8.07;6.30;;;;;;;;;;5073247;28;20197;-79
2023/06/13 08:39:27;;;;;;;6.77;6.17;;;;;;;;;;5053106;28;20202;-79
2023/06/13 08:41:56;;;;;;;6.80;6.30;;;;;;;;;;5065945;28;20201;-79
2023/06/13 08:44:26;;;;;;;6.07;5.40;;;;;;;;;;5053073;28;20202;-79
2023/06/13 08:46:52;;;;;;;7.07;6.27;;;;;;;;;;5067736;28;20220;-79
2023/06/13 08:49:19;;;;;;;6.70;6.10;;;;;;;;;;5090388;28;20637;-79
2023/06/13 08:51:46;;;;;;;5.73;5.27;;;;;;;;;;5094366;28;20192;-79
2023/06/13 08:54:16;;;;;;;6.83;5.80;;;;;;;;;;5113756;28;20203;-79
2023/06/13 08:56:43;;;;;;;6.77;6.17;;;;;;;;;;5097025;28;20204;-79
2023/06/13 08:59:15;;;;;;;10.37;6.63;;;;;;;;;;5102316;28;20629;-79
2023/06/13 09:01:43;;;;;;;7.90;6.20;;;;;;;;;;5109397;28;20254;-79
2023/06/13 09:04:11;;;;;;;6.70;6.13;;;;;;;;;;5093062;28;20227;-79
2023/06/13 09:06:38;;;;;;;6.30;5.70;;;;;;;;;;5106347;28;20207;-79
2023/06/13 09:09:07;;;;;;;6.37;5.63;;;;;;;;;;5092583;28;20243;-78
2023/06/13 09:11:36;;;;;;;6.87;6.27;;;;;;;;;;5092607;28;20287;-79
2023/06/13 09:14:04;;;;;;;8.90;5.50;;;;;;;;;;5104939;28;20203;-78
2023/06/13 09:16:32;;;;;;;10.80;6.27;;;;;;;;;;5094820;28;20204;-78
2023/06/13 09:18:59;;;;;;;7.27;6.60;;;;;;;;;;5103976;28;20212;-78
2023/06/13 09:21:26;;;;;;;7.27;6.57;;;;;;;;;;5094239;28;20192;-78
2023/06/13 09:23:54;;;;;;;8.73;6.83;;;;;;;;;;5104567;28;20210;-78
2023/06/13 09:26:23;;;;;;;7.50;6.80;;;;;;;;;;5093428;28;20208;-78
2023/06/13 09:28:52;;;;;;;9.40;8.40;;;;;;;;;;5105768;28;20219;-78
2023/06/13 09:31:19;;;;;;;7.40;6.70;;;;;;;;;;5098894;28;20258;-78
2023/06/13 09:33:46;;;;;;;8.33;7.53;;;;;;;;;;5098857;28;20265;-79
2023/06/13 09:36:13;;;;;;;7.53;6.80;;;;;;;;;;5092405;28;20200;-78
2023/06/13 09:38:41;;;;;;;7.07;6.20;;;;;;;;;;5092194;28;20204;-79
2023/06/13 09:41:09;;;;;;;7.37;6.67;;;;;;;;;;5112428;28;20256;-78
2023/06/13 09:43:38;;;;;;;6.63;6.03;;;;;;;;;;5112484;28;20203;-78
2023/06/13 09:46:08;;;;;;;6.90;6.23;;;;;;;;;;5104738;28;20581;-78
2023/06/13 09:48:35;;;;;;;6.33;5.83;;;;;;;;;;5093422;28;20235;-78
2023/06/13 09:51:07;;;;;;;6.97;6.27;;;;;;;;;;5112375;28;20203;-78
2023/06/13 09:53:35;;;;;;;6.67;5.90;;;;;;;;;;5108723;28;20210;-78
2023/06/13 09:56:02;;;;;;;10.43;9.40;;;;;;;;;;5101814;28;20199;-78
2023/06/13 09:58:29;;;;;;;8.47;6.17;;;;;;;;;;5111896;28;20577;-78
2023/06/13 10:00:58;;;;;;;8.60;6.03;;;;;;;;;;5111879;28;20751;-78
2023/06/13 10:03:27;;;;;;;9.93;8.60;;;;;;;;;;5098245;28;20198;-78
2023/06/13 10:05:53;;;;;;;7.63;6.07;;;;;;;;;;5101336;28;20211;-78
2023/06/13 10:08:20;;;;;;;7.33;5.90;;;;;;;;;;5091099;28;20698;-78
2023/06/13 10:10:47;;;;;;;7.83;6.33;;;;;;;;;;5091633;28;20291;-78
2023/06/13 10:13:16;;;;;;;6.43;5.83;;;;;;;;;;5105144;28;20197;-78
2023/06/13 10:15:46;;;;;;;7.93;6.07;;;;;;;;;;5091457;28;20196;-78
2023/06/13 10:18:14;;;;;;;7.33;5.67;;;;;;;;;;5104773;28;20200;-78
2023/06/13 10:20:44;;;;;;;6.83;6.33;;;;;;;;;;5091379;28;20204;-79
2023/06/13 10:23:12;;;;;;;7.67;6.77;;;;;;;;;;5091435;28;20200;-79
2023/06/13 10:25:39;;;;;;;7.23;6.33;;;;;;;;;;5104331;28;20199;-78
2023/06/13 10:28:10;;;;;;;6.70;6.17;;;;;;;;;;5098339;28;20677;-78
2023/06/13 10:30:50;;;;;;;8.27;6.83;;;;;;;;;;5097926;28;20629;-78
2023/06/13 10:33:45;;;;;;;9.00;6.03;;;;;;;;;;5111399;28;20281;-78
2023/06/13 10:36:23;;;;;;;6.97;5.73;;;;;;;;;;5091106;28;20204;-78
2023/06/13 10:39:19;;;;;;;5.87;5.27;;;;;;;;;;5107173;28;20203;-78
2023/06/13 10:41:53;;;;;;;6.60;5.93;;;;;;;;;;5098072;28;20207;-78
2023/06/13 10:44:24;;;;;;;5.20;4.70;;;;;;;;;;5098507;28;20203;-78
2023/06/13 10:46:51;;;;;;;7.07;5.90;;;;;;;;;;5097783;28;20228;-79
2023/06/13 10:49:18;;;;;;;6.33;5.43;;;;;;;;;;5110717;28;20295;-79
2023/06/13 10:51:46;;;;;;;8.73;5.97;;;;;;;;;;5097199;28;20666;-78
2023/06/13 10:54:14;;;;;;;7.03;6.13;;;;;;;;;;5102585;28;20201;-79
2023/06/13 10:56:43;;;;;;;7.10;6.43;;;;;;;;;;5104578;28;20276;-78
2023/06/13 10:59:11;;;;;;;7.97;6.30;;;;;;;;;;5091118;28;20204;-78
2023/06/13 11:01:38;;;;;;;7.30;5.53;;;;;;;;;;5094015;28;20707;-78
2023/06/13 11:04:10;;;;;;;11.37;6.27;;;;;;;;;;5101392;28;20258;-79
2023/06/13 11:06:38;;;;;;;6.87;6.27;;;;;;;;;;5104335;28;20196;-79
2023/06/13 11:09:27;;;;;;;6.40;5.87;;;;;;;;;;5101829;28;20215;-78
2023/06/13 11:11:55;;;;;;;7.63;6.93;;;;;;;;;;5104199;28;20203;-78
2023/06/13 11:14:25;;;;;;;6.57;6.07;;;;;;;;;;5096286;28;20675;-79
2023/06/13 11:16:52;;;;;;;6.47;5.87;;;;;;;;;;5098066;28;20222;-78
2023/06/13 11:19:21;;;;;;;7.13;6.37;;;;;;;;;;5110802;28;20204;-79
2023/06/13 11:21:51;;;;;;;7.27;6.53;;;;;;;;;;5090532;28;20204;-79
2023/06/13 11:24:18;;;;;;;6.53;5.93;;;;;;;;;;5092639;28;20200;-79
2023/06/13 11:26:47;;;;;;;6.20;5.60;;;;;;;;;;5102609;28;20290;-79
2023/06/13 11:29:14;;;;;;;11.50;6.60;;;;;;;;;;5106124;28;20222;-79
2023/06/13 11:31:41;;;;;;;5.37;4.87;;;;;;;;;;5101682;28;20227;-78
2023/06/13 11:34:16;;;;;;;7.13;5.60;;;;;;;;;;5106430;28;20992;-79
2023/06/13 11:36:44;;;;;;;6.00;5.53;;;;;;;;;;5110709;28;20685;-79
2023/06/13 11:39:12;;;;;;;7.00;5.17;;;;;;;;;;5110750;28;20204;-79
2023/06/13 11:41:39;;;;;;;8.63;6.30;;;;;;;;;;5105496;28;20206;-79
2023/06/13 11:44:08;;;;;;;6.37;5.77;;;;;;;;;;5114175;28;20280;-79
2023/06/13 11:46:36;;;;;;;6.60;6.10;;;;;;;;;;5114213;28;20664;-79
2023/06/13 11:49:03;;;;;;;5.93;5.53;;;;;;;;;;5100777;28;20264;-79
2023/06/13 11:51:31;;;;;;;5.40;5.00;;;;;;;;;;5102538;28;20240;-79
2023/06/13 11:53:59;;;;;;;5.60;5.10;;;;;;;;;;5112570;28;20282;-79
2023/06/13 11:56:27;;;;;;;7.20;5.43;;;;;;;;;;5102208;28;20621;-79
2023/06/13 11:58:55;;;;;;;6.60;6.03;;;;;;;;;;5099253;28;20250;-79
2023/06/13 12:01:25;;;;;;;5.43;5.10;;;;;;;;;;5114424;28;20228;-78
2023/06/13 12:03:53;;;;;;;5.47;4.97;;;;;;;;;;5114143;28;20199;-79
2023/06/13 12:06:20;;;;;;;6.13;5.63;;;;;;;;;;5114106;28;20295;-79
2023/06/13 12:08:47;;;;;;;6.37;5.60;;;;;;;;;;5100912;28;20735;-79
2023/06/13 12:11:15;;;;;;;8.50;5.73;;;;;;;;;;5113535;28;20195;-78
2023/06/13 12:13:42;;;;;;;5.80;5.20;;;;;;;;;;5093784;28;20679;-78
2023/06/13 12:16:09;;;;;;;7.50;6.07;;;;;;;;;;5095069;28;20204;-78
2023/06/13 12:18:37;;;;;;;6.67;6.10;;;;;;;;;;5114071;28;20200;-78
2023/06/13 12:21:03;;;;;;;6.10;5.70;;;;;;;;;;5098700;28;20200;-78
2023/06/13 12:23:33;;;;;;;12.57;6.63;;;;;;;;;;5102321;28;20199;-78
2023/06/13 12:26:00;;;;;;;7.40;6.67;;;;;;;;;;5100046;28;20727;-78
2023/06/13 12:28:28;;;;;;;7.10;6.37;;;;;;;;;;5104528;28;20239;-78
2023/06/13 12:30:57;;;;;;;6.53;5.93;;;;;;;;;;5109591;28;20234;-78
2023/06/13 12:33:33;;;;;;;7.53;5.77;;;;;;;;;;5103314;28;20258;-79
2023/06/13 12:36:05;;;;;;;10.53;6.87;;;;;;;;;;5107026;28;20581;-78
2023/06/13 12:38:33;;;;;;;7.23;6.60;;;;;;;;;;5105928;28;20264;-78
2023/06/13 12:41:00;;;;;;;8.00;6.67;;;;;;;;;;5107897;28;20252;-78
2023/06/13 12:43:28;;;;;;;6.07;5.57;;;;;;;;;;5093077;28;20204;-79
2023/06/13 12:45:56;;;;;;;5.67;5.07;;;;;;;;;;5099355;28;20241;-79
2023/06/13 12:48:23;;;;;;;5.70;5.30;;;;;;;;;;5099295;28;20694;-79
2023/06/13 12:50:52;;;;;;;7.93;4.80;;;;;;;;;;5099618;28;20774;-79
2023/06/13 12:53:21;;;;;;;5.73;5.23;;;;;;;;;;5098533;28;20287;-79
2023/06/13 12:55:48;;;;;;;6.03;5.47;;;;;;;;;;5100838;28;20697;-78
2023/06/13 12:58:35;;;;;;;8.27;7.57;;;;;;;;;;5098780;28;20261;-78
2023/06/13 13:01:03;;;;;;;6.20;5.60;;;;;;;;;;5113081;28;20202;-78
2023/06/13 13:03:32;;;;;;;6.43;5.83;;;;;;;;;;5099222;28;20203;-78
2023/06/13 13:05:59;;;;;;;11.23;6.10;;;;;;;;;;5101294;28;20208;-79
2023/06/13 13:08:28;;;;;;;6.53;5.93;;;;;;;;;;5111443;28;20642;-78
2023/06/13 13:10:55;;;;;;;6.67;5.13;;;;;;;;;;5100707;28;20262;-78
2023/06/13 13:13:23;;;;;;;7.93;4.80;;;;;;;;;;5112035;28;20199;-78
2023/06/13 13:15:50;;;;;;;11.00;7.87;;;;;;;;;;5099933;28;20204;-78
2023/06/13 13:18:17;;;;;;;17.52;11.77;;;;;;;;;;5111703;28;20294;-78
2023/06/13 13:20:44;;;;;;;8.87;7.97;;;;;;;;;;5113341;28;20214;-78
2023/06/13 13:23:11;;;;;;;8.60;7.27;;;;;;;;;;5092945;28;20204;-78
2023/06/13 13:25:39;;;;;;;7.90;6.23;;;;;;;;;;5105698;28;20208;-78
2023/06/13 13:28:06;;;;;;;10.80;8.65;;;;;;;;;;5092619;28;20200;-78
2023/06/13 13:30:33;;;;;;;7.63;6.20;;;;;;;;;;5106017;28;20314;-78
2023/06/13 13:33:00;;;;;;;10.15;8.90;;;;;;;;;;5099202;28;20203;-78
2023/06/13 13:35:26;;;;;;;7.30;6.70;;;;;;;;;;5098655;28;20205;-78
2023/06/13 13:37:53;;;;;;;8.83;7.07;;;;;;;;;;5092460;28;20626;-78
2023/06/13 13:40:20;;;;;;;7.50;6.00;;;;;;;;;;5092041;28;20690;-77
2023/06/13 13:42:48;;;;;;;10.67;9.60;;;;;;;;;;5098820;28;20203;-78
2023/06/13 13:45:15;;;;;;;10.57;9.47;;;;;;;;;;5112363;28;20245;-80
2023/06/13 13:47:41;;;;;;;8.23;7.50;;;;;;;;;;5104673;28;20192;-77
2023/06/13 13:50:08;;;;;;;7.83;7.13;;;;;;;;;;5092066;28;20595;-77
2023/06/13 13:52:36;;;;;;;7.83;7.10;;;;;;;;;;5104239;28;20208;-77
2023/06/13 13:55:03;;;;;;;6.60;6.10;;;;;;;;;;5105935;28;20597;-77
2023/06/13 13:57:30;;;;;;;6.90;6.40;;;;;;;;;;5112128;28;20267;-77
2023/06/13 13:59:59;;;;;;;7.27;6.63;;;;;;;;;;5097414;28;20723;-77
2023/06/13 14:02:26;;;;;;;7.00;6.40;;;;;;;;;;5112119;28;20203;-77
2023/06/13 14:04:52;;;;;;;7.73;7.13;;;;;;;;;;5096157;28;20678;-77
2023/06/13 14:07:21;;;;;;;8.40;7.20;;;;;;;;;;5099992;28;20195;-77
2023/06/13 14:09:47;;;;;;;8.43;7.60;;;;;;;;;;5107052;28;20223;-78
2023/06/13 14:12:14;;;;;;;7.37;6.77;;;;;;;;;;5109891;28;20200;-77
2023/06/13 14:14:41;;;;;;;7.87;6.60;;;;;;;;;;5108550;28;20240;-76
2023/06/13 14:17:09;;;;;;;10.53;7.27;;;;;;;;;;5091025;28;20215;-76
2023/06/13 14:19:35;;;;;;;8.30;7.27;;;;;;;;;;5101161;28;20272;-76
2023/06/13 14:22:03;;;;;;;12.47;7.43;;;;;;;;;;5097886;28;20206;-76
2023/06/13 14:24:31;;;;;;;8.33;7.60;;;;;;;;;;5111634;28;20199;-76
2023/06/13 14:26:58;;;;;;;9.10;6.57;;;;;;;;;;5110421;28;20750;-76
2023/06/13 14:29:26;;;;;;;7.93;7.23;;;;;;;;;;5102639;28;20584;-76
2023/06/13 14:31:53;;;;;;;7.70;7.00;;;;;;;;;;5106498;28;20226;-77
2023/06/13 14:34:21;;;;;;;9.37;6.77;;;;;;;;;;5111109;28;20215;-77
2023/06/13 14:36:53;;;;;;;8.13;7.20;;;;;;;;;;5097352;28;20290;-77
2023/06/13 14:39:19;;;;;;;7.30;6.60;;;;;;;;;;5100693;28;20200;-77
2023/06/13 14:41:46;;;;;;;9.67;7.20;;;;;;;;;;5104365;28;20207;-77
2023/06/13 14:44:13;;;;;;;9.27;6.90;;;;;;;;;;5091279;28;20287;-77
2023/06/13 14:46:40;;;;;;;9.47;6.00;;;;;;;;;;5103805;28;20253;-77